createdAt,value
2018-03-08T00:00:41.402Z,17.4
2018-03-08T00:01:31.531Z,17.4
2018-03-08T00:02:22.389Z,17.4
2018-03-08T00:03:12.479Z,17.4
2018-03-08T00:04:02.806Z,17.4
2018-03-08T00:04:51.999Z,17.4
2018-03-08T00:05:42.889Z,17.4
2018-03-08T00:06:32.750Z,17.4
2018-03-08T00:07:22.735Z,17.4
2018-03-08T00:08:12.810Z,17.4
2018-03-08T00:09:02.828Z,17.5
2018-03-08T00:09:52.896Z,17.4
2018-03-08T00:10:42.687Z,17.4
2018-03-08T00:11:33.017Z,17.4
2018-03-08T00:12:23.112Z,17.4
2018-03-08T00:13:13.648Z,17.4
2018-03-08T00:14:02.659Z,17.4
2018-03-08T00:14:53.047Z,17.4
2018-03-08T00:15:42.753Z,17.5
2018-03-08T00:16:33.394Z,17.4
2018-03-08T00:17:23.164Z,17.4
2018-03-08T00:18:13.804Z,17.4
2018-03-08T00:19:03.820Z,17.4
2018-03-08T00:19:53.901Z,17.5
2018-03-08T00:20:43.661Z,17.5
2018-03-08T00:21:33.164Z,17.5
2018-03-08T00:22:23.082Z,17.4
2018-03-08T00:23:13.205Z,17.4
2018-03-08T00:24:03.192Z,17.4
2018-03-08T00:24:53.744Z,17.4
2018-03-08T00:25:43.767Z,17.4
2018-03-08T00:26:34.119Z,17.5
2018-03-08T00:27:23.499Z,17.5
2018-03-08T00:28:13.359Z,17.4
2018-03-08T00:29:04.332Z,17.5
2018-03-08T00:29:54.126Z,17.5
2018-03-08T00:30:43.664Z,17.5
2018-03-08T00:31:33.403Z,17.5
2018-03-08T00:32:23.233Z,17.5
2018-03-08T00:33:13.651Z,17.4
2018-03-08T00:34:03.847Z,17.4
2018-03-08T00:34:53.828Z,17.5
2018-03-08T00:35:44.041Z,17.4
2018-03-08T00:36:33.543Z,17.5
2018-03-08T00:37:23.430Z,17.5
2018-03-08T00:38:14.094Z,17.4
2018-03-08T00:39:04.274Z,17.4
2018-03-08T00:39:54.174Z,17.4
2018-03-08T00:40:43.744Z,17.4
2018-03-08T00:41:34.761Z,17.5
2018-03-08T00:42:24.023Z,17.5
2018-03-08T00:43:14.718Z,17.4
2018-03-08T00:44:04.577Z,17.5
2018-03-08T00:44:54.655Z,17.5
2018-03-08T00:45:44.283Z,17.5
2018-03-08T00:46:34.262Z,17.5
2018-03-08T00:47:25.388Z,17.5
2018-03-08T00:48:14.661Z,17.5
2018-03-08T00:49:04.168Z,17.5
2018-03-08T00:49:55.505Z,17.5
2018-03-08T00:50:44.652Z,17.5
2018-03-08T00:51:34.197Z,17.5
2018-03-08T00:52:25.417Z,17.5
2018-03-08T00:53:16.055Z,17.5
2018-03-08T00:54:05.288Z,17.5
2018-03-08T00:54:55.335Z,17.5
2018-03-08T00:55:45.704Z,17.5
2018-03-08T00:56:35.084Z,17.5
2018-03-08T00:57:25.732Z,17.5
2018-03-08T00:58:15.484Z,17.5
2018-03-08T00:59:06.172Z,17.5
2018-03-08T00:59:55.796Z,17.5
2018-03-08T01:00:45.804Z,17.5
2018-03-08T01:01:35.992Z,17.5
2018-03-08T01:02:26.032Z,17.5
2018-03-08T01:03:16.217Z,17.5
2018-03-08T01:04:06.247Z,17.5
2018-03-08T01:04:56.881Z,17.5
2018-03-08T01:05:45.814Z,17.5
2018-03-08T01:06:35.863Z,17.5
2018-03-08T01:07:27.027Z,17.5
2018-03-08T01:08:15.928Z,17.5
2018-03-08T01:09:06.247Z,17.5
2018-03-08T01:09:56.446Z,17.5
2018-03-08T01:10:46.681Z,17.5
2018-03-08T01:11:36.608Z,17.5
2018-03-08T01:12:26.736Z,17.6
2018-03-08T01:13:16.607Z,17.5
2018-03-08T01:14:06.987Z,17.5
2018-03-08T01:14:57.138Z,17.5
2018-03-08T01:15:46.652Z,17.6
2018-03-08T01:16:36.359Z,17.5
2018-03-08T01:17:26.842Z,17.6
2018-03-08T01:18:16.889Z,17.6
2018-03-08T01:19:06.852Z,17.6
2018-03-08T01:19:56.956Z,17.5
2018-03-08T01:20:46.691Z,17.6
2018-03-08T01:21:36.626Z,17.6
2018-03-08T01:22:26.986Z,17.6
2018-03-08T01:23:17.068Z,17.6
2018-03-08T01:24:07.161Z,17.6
2018-03-08T01:24:57.448Z,17.6
2018-03-08T01:25:47.713Z,17.6
2018-03-08T01:26:36.778Z,17.5
2018-03-08T01:27:27.618Z,17.6
2018-03-08T01:28:17.873Z,17.6
2018-03-08T01:29:07.210Z,17.6
2018-03-08T01:29:58.263Z,17.6
2018-03-08T01:30:47.653Z,17.6
2018-03-08T01:31:37.908Z,17.6
2018-03-08T01:32:28.284Z,17.6
2018-03-08T01:33:18.838Z,17.6
2018-03-08T01:34:08.011Z,17.6
2018-03-08T01:34:57.668Z,17.6
2018-03-08T01:35:47.908Z,17.6
2018-03-08T01:36:38.831Z,17.6
2018-03-08T01:37:28.817Z,17.6
2018-03-08T01:38:19.447Z,17.6
2018-03-08T01:39:08.741Z,17.6
2018-03-08T01:39:59.064Z,17.6
2018-03-08T01:40:48.744Z,17.6
2018-03-08T01:41:38.122Z,17.6
2018-03-08T01:42:28.188Z,17.6
2018-03-08T01:43:18.922Z,17.6
2018-03-08T01:44:09.287Z,17.6
2018-03-08T01:44:58.837Z,17.6
2018-03-08T01:45:48.449Z,17.6
2018-03-08T01:46:39.219Z,17.6
2018-03-08T01:47:28.935Z,17.6
2018-03-08T01:48:19.156Z,17.6
2018-03-08T01:49:09.715Z,17.6
2018-03-08T01:49:59.295Z,17.6
2018-03-08T01:50:49.782Z,17.6
2018-03-08T01:51:39.226Z,17.6
2018-03-08T01:52:29.565Z,17.6
2018-03-08T01:53:19.684Z,17.6
2018-03-08T01:54:08.915Z,17.6
2018-03-08T01:54:59.555Z,17.6
2018-03-08T01:55:50.036Z,17.6
2018-03-08T01:56:39.748Z,17.6
2018-03-08T01:57:28.874Z,17.6
2018-03-08T01:58:19.137Z,17.6
2018-03-08T01:59:10.388Z,17.6
2018-03-08T02:00:00.263Z,17.6
2018-03-08T02:00:50.017Z,17.6
2018-03-08T02:01:40.521Z,17.6
2018-03-08T02:02:29.179Z,17.6
2018-03-08T02:03:20.076Z,17.6
2018-03-08T02:04:09.751Z,17.6
2018-03-08T02:04:59.999Z,17.6
2018-03-08T02:05:50.796Z,17.6
2018-03-08T02:06:40.109Z,17.6
2018-03-08T02:07:31.169Z,17.6
2018-03-08T02:08:21.086Z,17.6
2018-03-08T02:09:09.887Z,17.6
2018-03-08T02:10:00.505Z,17.6
2018-03-08T02:10:49.678Z,17.6
2018-03-08T02:11:41.189Z,17.6
2018-03-08T02:12:30.281Z,17.6
2018-03-08T02:13:21.138Z,17.6
2018-03-08T02:14:11.188Z,17.6
2018-03-08T02:15:00.966Z,17.6
2018-03-08T02:15:51.266Z,17.6
2018-03-08T02:16:41.195Z,17.6
2018-03-08T02:17:31.754Z,17.6
2018-03-08T02:18:21.400Z,17.6
2018-03-08T02:19:10.970Z,17.6
2018-03-08T02:20:00.820Z,17.6
2018-03-08T02:20:51.268Z,17.6
2018-03-08T02:21:41.299Z,17.6
2018-03-08T02:22:31.967Z,17.6
2018-03-08T02:23:21.324Z,17.6
2018-03-08T02:24:11.405Z,17.6
2018-03-08T02:25:01.223Z,17.6
2018-03-08T02:25:51.912Z,17.6
2018-03-08T02:26:41.325Z,17.6
2018-03-08T02:27:32.296Z,17.6
2018-03-08T02:28:21.880Z,17.6
2018-03-08T02:29:12.164Z,17.6
2018-03-08T02:30:02.308Z,17.6
2018-03-08T02:30:51.392Z,17.6
2018-03-08T02:31:42.336Z,17.6
2018-03-08T02:32:32.092Z,17.6
2018-03-08T02:33:22.196Z,17.6
2018-03-08T02:34:12.027Z,17.6
2018-03-08T02:35:02.630Z,17.6
2018-03-08T02:35:52.309Z,17.6
2018-03-08T02:36:41.930Z,17.6
2018-03-08T02:37:31.965Z,17.6
2018-03-08T02:38:22.007Z,17.6
2018-03-08T02:39:12.985Z,17.6
2018-03-08T02:40:02.978Z,17.6
2018-03-08T02:40:52.854Z,17.6
2018-03-08T02:41:42.299Z,17.6
2018-03-08T02:42:31.823Z,17.6
2018-03-08T02:43:22.360Z,17.6
2018-03-08T02:44:13.482Z,17.6
2018-03-08T02:45:03.228Z,17.6
2018-03-08T02:45:52.700Z,17.6
2018-03-08T02:46:43.427Z,17.6
2018-03-08T02:47:33.131Z,17.6
2018-03-08T02:48:23.268Z,17.6
2018-03-08T02:49:12.798Z,17.7
2018-03-08T02:50:03.258Z,17.6
2018-03-08T02:50:54.264Z,17.6
2018-03-08T02:51:43.781Z,17.6
2018-03-08T02:52:33.426Z,17.6
2018-03-08T02:53:23.847Z,17.6
2018-03-08T02:54:14.206Z,17.7
2018-03-08T02:55:04.333Z,17.6
2018-03-08T02:55:54.133Z,17.7
2018-03-08T02:56:43.789Z,17.7
2018-03-08T02:57:33.637Z,17.7
2018-03-08T02:58:24.083Z,17.7
2018-03-08T02:59:14.580Z,17.7
2018-03-08T03:00:04.014Z,17.7
2018-03-08T03:00:54.666Z,17.7
2018-03-08T03:01:44.431Z,17.7
2018-03-08T03:02:33.674Z,17.7
2018-03-08T03:03:23.735Z,17.6
2018-03-08T03:04:14.786Z,17.7
2018-03-08T03:05:04.040Z,17.7
2018-03-08T03:05:54.082Z,17.7
2018-03-08T03:06:43.960Z,17.7
2018-03-08T03:07:34.337Z,17.7
2018-03-08T03:08:24.122Z,17.7
2018-03-08T03:09:14.773Z,17.7
2018-03-08T03:10:05.045Z,17.7
2018-03-08T03:10:54.801Z,17.7
2018-03-08T03:11:44.505Z,17.7
2018-03-08T03:12:34.885Z,17.7
2018-03-08T03:13:25.606Z,17.7
2018-03-08T03:14:15.309Z,17.7
2018-03-08T03:15:05.089Z,17.7
2018-03-08T03:15:55.124Z,17.7
2018-03-08T03:16:45.709Z,17.7
2018-03-08T03:17:35.239Z,17.7
2018-03-08T03:18:26.114Z,17.7
2018-03-08T03:19:16.169Z,17.7
2018-03-08T03:20:06.554Z,17.7
2018-03-08T03:20:56.019Z,17.7
2018-03-08T03:21:46.100Z,17.7
2018-03-08T03:22:36.663Z,17.7
2018-03-08T03:23:26.779Z,17.7
2018-03-08T03:24:16.517Z,17.7
2018-03-08T03:25:06.015Z,17.7
2018-03-08T03:25:55.992Z,17.7
2018-03-08T03:26:45.822Z,17.7
2018-03-08T03:27:35.408Z,17.7
2018-03-08T03:28:26.182Z,17.7
2018-03-08T03:29:15.863Z,17.7
2018-03-08T03:30:06.451Z,17.7
2018-03-08T03:30:55.980Z,17.7
2018-03-08T03:31:45.639Z,17.7
2018-03-08T03:32:36.605Z,17.7
2018-03-08T03:33:27.210Z,17.7
2018-03-08T03:34:16.985Z,17.7
2018-03-08T03:35:06.489Z,17.7
2018-03-08T03:35:56.888Z,17.7
2018-03-08T03:36:46.358Z,17.7
2018-03-08T03:37:36.650Z,17.7
2018-03-08T03:38:26.223Z,17.7
2018-03-08T03:39:16.721Z,17.7
2018-03-08T03:40:07.217Z,17.7
2018-03-08T03:40:57.241Z,17.7
2018-03-08T03:41:46.960Z,17.7
2018-03-08T03:42:37.075Z,17.7
2018-03-08T03:43:27.157Z,17.7
2018-03-08T03:44:16.895Z,17.7
2018-03-08T03:45:07.987Z,17.7
2018-03-08T03:45:58.070Z,17.7
2018-03-08T03:46:47.803Z,17.7
2018-03-08T03:47:38.272Z,17.7
2018-03-08T03:48:27.665Z,17.8
2018-03-08T03:49:18.057Z,17.8
2018-03-08T03:50:08.109Z,17.8
2018-03-08T03:50:58.702Z,17.8
2018-03-08T03:51:48.740Z,17.8
2018-03-08T03:52:38.777Z,17.8
2018-03-08T03:53:28.824Z,17.8
2018-03-08T03:54:18.659Z,17.8
2018-03-08T03:55:08.985Z,17.7
2018-03-08T03:55:58.457Z,17.8
2018-03-08T03:56:47.284Z,17.8
2018-03-08T03:57:38.140Z,17.8
2018-03-08T03:58:28.376Z,17.8
2018-03-08T03:59:17.897Z,17.8
2018-03-08T04:00:08.782Z,17.8
2018-03-08T04:00:57.383Z,17.8
2018-03-08T04:01:47.988Z,17.8
2018-03-08T04:02:38.271Z,17.8
2018-03-08T04:03:28.645Z,17.8
2018-03-08T04:04:18.508Z,17.8
2018-03-08T04:05:07.899Z,17.9
2018-03-08T04:05:58.512Z,17.9
2018-03-08T04:06:49.102Z,17.9
2018-03-08T04:07:39.039Z,17.9
2018-03-08T04:08:28.798Z,17.9
2018-03-08T04:09:19.321Z,17.9
2018-03-08T04:10:08.446Z,17.9
2018-03-08T04:10:58.860Z,17.8
2018-03-08T04:11:49.207Z,17.8
2018-03-08T04:12:39.259Z,17.8
2018-03-08T04:13:29.124Z,17.8
2018-03-08T04:14:19.490Z,17.7
2018-03-08T04:15:09.251Z,17.7
2018-03-08T04:15:59.111Z,17.6
2018-03-08T04:16:49.633Z,17.6
2018-03-08T04:17:40.296Z,17.6
2018-03-08T04:18:29.275Z,17.6
2018-03-08T04:19:19.656Z,17.6
2018-03-08T04:20:09.511Z,17.6
2018-03-08T04:20:59.493Z,17.6
2018-03-08T04:21:49.998Z,17.5
2018-03-08T04:22:39.731Z,17.5
2018-03-08T04:23:30.231Z,17.4
2018-03-08T04:24:20.311Z,17.5
2018-03-08T04:25:24.551Z,17.5
2018-03-08T04:26:00.878Z,17.4
2018-03-08T04:26:50.187Z,17.4
2018-03-08T04:27:40.706Z,17.4
2018-03-08T04:28:31.124Z,17.4
2018-03-08T04:29:20.235Z,17.4
2018-03-08T04:30:10.202Z,17.4
2018-03-08T04:30:59.761Z,17.4
2018-03-08T04:31:50.526Z,17.4
2018-03-08T04:32:39.872Z,17.4
2018-03-08T04:33:30.671Z,17.4
2018-03-08T04:34:21.468Z,17.4
2018-03-08T04:35:10.422Z,17.4
2018-03-08T04:36:00.448Z,17.4
2018-03-08T04:36:50.909Z,17.4
2018-03-08T04:37:41.110Z,17.4
2018-03-08T04:38:30.675Z,17.4
2018-03-08T04:39:20.653Z,17.4
2018-03-08T04:40:11.562Z,17.4
2018-03-08T04:41:01.174Z,17.4
2018-03-08T04:41:51.294Z,17.4
2018-03-08T04:42:41.748Z,17.4
2018-03-08T04:43:31.257Z,17.4
2018-03-08T04:44:21.357Z,17.3
2018-03-08T04:45:11.359Z,17.3
2018-03-08T04:46:01.526Z,17.3
2018-03-08T04:46:51.118Z,17.3
2018-03-08T04:47:42.097Z,17.3
2018-03-08T04:48:31.817Z,17.3
2018-03-08T04:49:21.745Z,17.3
2018-03-08T04:50:11.535Z,17.3
2018-03-08T04:51:02.397Z,17.3
2018-03-08T04:51:51.655Z,17.3
2018-03-08T04:52:41.979Z,17.3
2018-03-08T04:53:31.522Z,17.3
2018-03-08T04:54:22.401Z,17.3
2018-03-08T04:55:11.863Z,17.3
2018-03-08T04:56:02.122Z,17.3
2018-03-08T04:56:51.968Z,17.3
2018-03-08T04:57:43.091Z,17.3
2018-03-08T04:58:32.786Z,17.3
2018-03-08T04:59:21.957Z,17.3
2018-03-08T05:00:12.996Z,17.3
2018-03-08T05:01:02.455Z,17.3
2018-03-08T05:01:52.630Z,17.3
2018-03-08T05:02:41.696Z,17.3
2018-03-08T05:03:32.770Z,17.3
2018-03-08T05:04:22.314Z,17.3
2018-03-08T05:05:12.866Z,17.3
2018-03-08T05:06:03.139Z,17.3
2018-03-08T05:06:53.177Z,17.3
2018-03-08T05:07:43.366Z,17.3
2018-03-08T05:08:32.494Z,17.3
2018-03-08T05:09:23.170Z,17.3
2018-03-08T05:10:13.610Z,17.3
2018-03-08T05:11:02.893Z,17.3
2018-03-08T05:11:53.046Z,17.3
2018-03-08T05:12:43.621Z,17.3
2018-03-08T05:13:33.492Z,17.3
2018-03-08T05:14:23.590Z,17.3
2018-03-08T05:15:14.343Z,17.3
2018-03-08T05:16:03.897Z,17.3
2018-03-08T05:16:54.326Z,17.3
2018-03-08T05:17:43.630Z,17.3
2018-03-08T05:18:33.399Z,17.3
2018-03-08T05:19:24.055Z,17.3
2018-03-08T05:20:13.903Z,17.3
2018-03-08T05:21:04.246Z,17.3
2018-03-08T05:21:54.120Z,17.3
2018-03-08T05:22:43.786Z,17.3
2018-03-08T05:23:33.941Z,17.3
2018-03-08T05:24:24.240Z,17.3
2018-03-08T05:25:14.721Z,17.3
2018-03-08T05:26:05.103Z,17.3
2018-03-08T05:26:53.788Z,17.3
2018-03-08T05:27:44.722Z,17.3
2018-03-08T05:28:34.486Z,17.3
2018-03-08T05:29:23.976Z,17.3
2018-03-08T05:30:13.716Z,17.3
2018-03-08T05:31:04.371Z,17.3
2018-03-08T05:31:55.279Z,17.3
2018-03-08T05:32:44.183Z,17.3
2018-03-08T05:33:35.561Z,17.3
2018-03-08T05:34:25.669Z,17.3
2018-03-08T05:35:15.695Z,17.3
2018-03-08T05:36:05.780Z,17.3
2018-03-08T05:36:55.825Z,17.3
2018-03-08T05:37:45.965Z,17.3
2018-03-08T05:38:35.918Z,17.3
2018-03-08T05:39:26.035Z,17.3
2018-03-08T05:40:16.055Z,17.3
2018-03-08T05:41:05.886Z,17.3
2018-03-08T05:41:55.632Z,17.3
2018-03-08T05:42:45.987Z,17.3
2018-03-08T05:43:36.285Z,17.3
2018-03-08T05:44:25.786Z,17.3
2018-03-08T05:45:15.859Z,17.3
2018-03-08T05:46:06.469Z,17.3
2018-03-08T05:46:55.760Z,17.3
2018-03-08T05:47:46.027Z,17.3
2018-03-08T05:48:36.092Z,17.3
2018-03-08T05:49:25.753Z,17.3
2018-03-08T05:50:15.985Z,17.3
2018-03-08T05:51:06.363Z,17.3
2018-03-08T05:51:55.304Z,17.3
2018-03-08T05:52:46.441Z,17.3
2018-03-08T05:53:37.298Z,17.3
2018-03-08T05:54:25.884Z,17.3
2018-03-08T05:55:16.281Z,17.3
2018-03-08T05:56:05.921Z,17.3
2018-03-08T05:56:56.360Z,17.3
2018-03-08T05:57:46.299Z,17.3
2018-03-08T05:58:36.319Z,17.3
2018-03-08T05:59:26.798Z,17.3
2018-03-08T06:00:16.786Z,17.3
2018-03-08T06:01:07.046Z,17.3
2018-03-08T06:01:56.111Z,17.3
2018-03-08T06:02:46.769Z,17.3
2018-03-08T06:03:36.827Z,17.3
2018-03-08T06:04:27.198Z,17.3
2018-03-08T06:05:17.104Z,17.3
2018-03-08T06:06:07.009Z,17.3
2018-03-08T06:06:56.731Z,17.3
2018-03-08T06:07:47.208Z,17.3
2018-03-08T06:08:37.281Z,17.3
2018-03-08T06:09:27.139Z,17.3
2018-03-08T06:10:17.317Z,17.3
2018-03-08T06:11:07.172Z,17.3
2018-03-08T06:11:56.901Z,17.3
2018-03-08T06:12:47.688Z,17.3
2018-03-08T06:13:37.506Z,17.3
2018-03-08T06:14:28.143Z,17.3
2018-03-08T06:15:17.715Z,17.3
2018-03-08T06:16:07.308Z,17.3
2018-03-08T06:16:57.567Z,17.3
2018-03-08T06:17:48.135Z,17.3
2018-03-08T06:18:37.551Z,17.3
2018-03-08T06:19:28.649Z,17.3
2018-03-08T06:20:18.580Z,17.3
2018-03-08T06:21:08.247Z,17.3
2018-03-08T06:21:58.404Z,17.3
2018-03-08T06:22:47.978Z,17.3
2018-03-08T06:23:39.372Z,17.3
2018-03-08T06:24:29.195Z,17.3
2018-03-08T06:25:19.188Z,17.3
2018-03-08T06:26:09.642Z,17.3
2018-03-08T06:26:59.033Z,17.3
2018-03-08T06:27:49.613Z,17.3
2018-03-08T06:28:39.736Z,17.3
2018-03-08T06:29:28.963Z,17.3
2018-03-08T06:30:19.819Z,17.3
2018-03-08T06:31:08.058Z,17.3
2018-03-08T06:31:59.901Z,17.3
2018-03-08T06:32:49.424Z,17.3
2018-03-08T06:33:40.035Z,17.3
2018-03-08T06:34:30.134Z,17.3
2018-03-08T06:35:19.575Z,17.3
2018-03-08T06:36:09.936Z,17.3
2018-03-08T06:37:00.281Z,17.3
2018-03-08T06:37:50.025Z,17.3
2018-03-08T06:38:40.357Z,17.3
2018-03-08T18:44:59.423Z,15.9
2018-03-08T18:45:48.859Z,15.9
2018-03-08T18:46:39.814Z,15.9
2018-03-08T18:47:29.172Z,15.9
2018-03-08T18:48:19.957Z,15.9
2018-03-08T18:49:09.214Z,15.9
2018-03-08T18:49:59.446Z,15.9
2018-03-08T18:50:48.879Z,15.9
2018-03-08T18:51:39.830Z,15.9
2018-03-08T18:52:30.742Z,15.9
2018-03-08T18:53:20.473Z,15.9
2018-03-08T18:54:10.539Z,15.9
2018-03-08T18:55:00.679Z,15.9
2018-03-08T18:55:50.935Z,15.9
2018-03-08T18:56:40.227Z,15.9
2018-03-08T18:57:30.349Z,15.9
2018-03-08T18:58:19.699Z,15.9
2018-03-08T18:59:09.873Z,15.9
2018-03-08T18:59:59.651Z,15.9
2018-03-08T19:00:50.512Z,15.9
2018-03-08T19:01:39.979Z,15.9
2018-03-08T19:02:30.001Z,15.8
2018-03-08T19:03:20.445Z,15.8
2018-03-08T19:04:10.520Z,15.8
2018-03-08T19:05:01.081Z,15.8
2018-03-08T19:05:50.671Z,15.8
2018-03-08T19:06:40.618Z,15.8
2018-03-08T19:07:30.676Z,15.8
2018-03-08T19:08:21.497Z,15.8
2018-03-08T19:09:10.783Z,15.8
2018-03-08T19:10:01.124Z,15.8
2018-03-08T19:10:50.583Z,15.8
2018-03-08T19:11:41.220Z,15.8
2018-03-08T19:12:31.101Z,15.8
2018-03-08T19:13:21.126Z,15.8
2018-03-08T19:14:11.024Z,15.8
2018-03-08T19:15:01.583Z,15.8
2018-03-08T19:15:50.942Z,15.8
2018-03-08T19:16:41.089Z,15.8
2018-03-08T19:17:31.345Z,15.8
2018-03-08T19:18:21.618Z,15.8
2018-03-08T19:19:11.575Z,15.8
2018-03-08T19:20:02.133Z,15.8
2018-03-08T19:20:52.245Z,15.8
2018-03-08T19:21:41.370Z,15.8
2018-03-08T19:22:31.818Z,15.8
2018-03-08T19:23:21.160Z,15.8
2018-03-08T19:24:11.332Z,15.8
2018-03-08T19:25:02.067Z,15.8
2018-03-08T19:25:51.950Z,15.8
2018-03-08T19:26:41.246Z,15.8
2018-03-08T19:27:32.084Z,15.8
2018-03-08T19:28:21.716Z,15.8
2018-03-08T19:29:12.470Z,15.8
2018-03-08T19:30:02.497Z,15.8
2018-03-08T19:30:52.297Z,15.8
2018-03-08T19:31:41.744Z,15.8
2018-03-08T19:32:32.299Z,15.8
2018-03-08T19:33:22.777Z,15.8
2018-03-08T19:34:12.420Z,15.8
2018-03-08T19:35:03.159Z,15.8
2018-03-08T19:35:52.659Z,15.8
2018-03-08T19:36:43.904Z,15.8
2018-03-08T19:37:33.354Z,15.8
2018-03-08T19:38:23.949Z,15.8
2018-03-08T19:39:13.693Z,15.8
2018-03-08T19:40:03.460Z,15.8
2018-03-08T19:40:53.554Z,15.8
2018-03-08T19:41:43.571Z,15.8
2018-03-08T19:42:34.179Z,15.8
2018-03-08T19:43:22.902Z,15.8
2018-03-08T19:44:13.671Z,15.8
2018-03-08T19:45:03.286Z,15.8
2018-03-08T19:45:53.343Z,15.8
2018-03-08T19:46:43.284Z,15.8
2018-03-08T19:47:33.359Z,15.8
2018-03-08T19:48:23.881Z,15.8
2018-03-08T19:49:14.158Z,15.8
2018-03-08T19:50:04.261Z,15.8
2018-03-08T19:50:53.741Z,15.8
2018-03-08T19:51:44.313Z,15.8
2018-03-08T19:52:33.626Z,15.8
2018-03-08T19:53:24.131Z,15.8
2018-03-08T19:54:13.209Z,15.8
2018-03-08T19:55:04.577Z,15.8
2018-03-08T19:55:54.097Z,15.8
2018-03-08T19:56:43.490Z,15.8
2018-03-08T19:57:33.661Z,15.8
2018-03-08T19:58:24.312Z,15.8
2018-03-08T19:59:14.275Z,15.8
2018-03-08T20:00:04.635Z,15.8
2018-03-08T20:00:54.180Z,15.8
2018-03-08T20:01:45.482Z,15.8
2018-03-08T20:02:35.058Z,15.8
2018-03-08T20:03:25.118Z,15.8
2018-03-08T20:04:15.799Z,15.8
2018-03-08T20:05:05.515Z,15.8
2018-03-08T20:05:55.026Z,15.8
2018-03-08T20:06:45.690Z,15.8
2018-03-08T20:07:35.178Z,15.8
2018-03-08T20:08:25.740Z,15.8
2018-03-08T20:09:15.527Z,15.8
2018-03-08T20:10:05.879Z,15.8
2018-03-08T20:10:55.338Z,15.8
2018-03-08T20:11:45.967Z,15.8
2018-03-08T20:12:35.744Z,15.8
2018-03-08T20:13:26.067Z,15.8
2018-03-08T20:14:15.569Z,15.8
2018-03-08T20:15:06.559Z,15.8
2018-03-08T20:15:56.240Z,15.8
2018-03-08T20:16:46.362Z,15.8
2018-03-08T20:17:36.632Z,15.8
2018-03-08T20:18:26.707Z,15.8
2018-03-08T20:19:16.463Z,15.8
2018-03-08T20:20:06.608Z,15.8
2018-03-08T20:20:56.616Z,15.8
2018-03-08T20:21:45.417Z,15.8
2018-03-08T20:22:35.976Z,15.8
2018-03-08T20:23:26.806Z,15.8
2018-03-08T20:24:15.491Z,15.8
2018-03-08T20:25:05.730Z,15.8
2018-03-08T20:25:56.364Z,15.8
2018-03-08T20:26:46.172Z,15.8
2018-03-08T20:27:36.619Z,15.8
2018-03-08T20:28:25.898Z,15.8
2018-03-08T20:29:16.708Z,15.8
2018-03-08T20:30:06.716Z,15.8
2018-03-08T20:30:56.541Z,15.8
2018-03-08T20:31:46.823Z,15.8
2018-03-08T20:32:37.421Z,15.8
2018-03-08T20:33:26.566Z,15.8
2018-03-08T20:34:17.075Z,15.8
2018-03-08T20:35:06.440Z,15.8
2018-03-08T20:35:57.358Z,15.8
2018-03-08T20:36:47.125Z,15.8
2018-03-08T20:37:36.423Z,15.8
2018-03-08T20:38:26.811Z,15.8
2018-03-08T20:39:17.641Z,15.8
2018-03-08T20:40:07.408Z,15.8
2018-03-08T20:40:56.473Z,15.8
2018-03-08T20:41:46.655Z,15.8
2018-03-08T20:42:37.095Z,15.8
2018-03-08T20:43:26.953Z,15.8
2018-03-08T20:44:17.574Z,15.8
2018-03-08T20:45:07.737Z,15.8
2018-03-08T20:45:57.671Z,15.8
2018-03-08T20:46:47.857Z,15.8
2018-03-08T20:47:38.015Z,15.8
2018-03-08T20:48:27.542Z,15.8
2018-03-08T20:49:17.245Z,15.8
2018-03-08T20:50:07.331Z,15.8
2018-03-08T20:50:58.232Z,15.8
2018-03-08T20:51:47.508Z,15.8
2018-03-08T20:52:38.819Z,15.8
2018-03-08T20:53:27.822Z,15.8
2018-03-08T20:54:17.872Z,15.8
2018-03-08T20:55:07.652Z,15.8
2018-03-08T20:55:57.999Z,15.8
2018-03-08T20:56:47.949Z,15.8
2018-03-08T20:57:38.087Z,15.8
2018-03-08T20:58:28.500Z,15.8
2018-03-08T20:59:18.230Z,15.8
2018-03-08T21:00:08.274Z,15.8
2018-03-08T21:00:58.299Z,15.9
2018-03-08T21:01:48.697Z,15.8
2018-03-08T21:02:38.680Z,15.9
2018-03-08T21:03:29.340Z,15.8
2018-03-08T21:04:18.888Z,15.9
2018-03-08T21:05:08.657Z,15.9
2018-03-08T21:05:58.683Z,15.8
2018-03-08T21:06:48.883Z,15.9
2018-03-08T21:07:39.128Z,15.9
2018-03-08T21:08:29.449Z,15.8
2018-03-08T21:09:18.554Z,15.9
2018-03-08T21:10:09.063Z,15.9
2018-03-08T21:10:58.741Z,15.9
2018-03-08T21:11:48.911Z,15.9
2018-03-08T21:12:39.427Z,15.9
2018-03-08T21:13:28.719Z,15.9
2018-03-08T21:14:18.674Z,15.8
2018-03-08T21:15:09.363Z,15.9
2018-03-08T21:15:58.506Z,15.9
2018-03-08T21:16:49.736Z,15.9
2018-03-08T21:17:39.521Z,15.9
2018-03-08T21:18:30.071Z,15.9
2018-03-08T21:19:20.656Z,15.8
2018-03-08T21:20:10.976Z,15.9
2018-03-08T21:21:00.734Z,15.9
2018-03-08T21:21:50.802Z,15.9
2018-03-08T21:22:41.133Z,15.9
2018-03-08T21:23:30.941Z,15.9
2018-03-08T21:24:20.966Z,15.9
2018-03-08T21:25:10.835Z,15.9
2018-03-08T21:26:01.371Z,15.9
2018-03-08T21:26:51.437Z,15.9
2018-03-08T21:27:40.978Z,15.9
2018-03-08T21:28:31.559Z,15.9
2018-03-08T21:29:21.375Z,15.8
2018-03-08T21:30:11.389Z,15.9
2018-03-08T21:31:01.445Z,15.9
2018-03-08T21:31:51.770Z,15.9
2018-03-08T21:32:41.538Z,15.9
2018-03-08T21:33:31.778Z,15.9
2018-03-08T21:34:21.975Z,15.9
2018-03-08T21:35:11.486Z,15.9
2018-03-08T21:36:01.828Z,15.9
2018-03-08T21:36:51.865Z,15.9
2018-03-08T21:37:42.210Z,15.9
2018-03-08T21:38:31.737Z,15.9
2018-03-08T21:39:21.800Z,15.9
2018-03-08T21:40:12.395Z,15.9
2018-03-08T21:41:02.200Z,15.9
2018-03-08T21:41:52.340Z,15.9
2018-03-08T21:42:42.569Z,15.9
2018-03-08T21:43:31.773Z,15.9
2018-03-08T21:44:22.402Z,15.9
2018-03-08T21:45:11.895Z,15.9
2018-03-08T21:46:02.542Z,15.9
2018-03-08T21:46:52.577Z,15.9
2018-03-08T21:47:41.882Z,15.9
2018-03-08T21:48:32.560Z,15.9
2018-03-08T21:49:21.964Z,15.9
2018-03-08T21:50:12.660Z,15.9
2018-03-08T21:51:02.444Z,15.9
2018-03-08T21:51:52.452Z,15.9
2018-03-08T21:52:42.780Z,15.9
2018-03-08T21:53:33.287Z,15.9
2018-03-08T21:54:22.535Z,15.9
2018-03-08T21:55:13.133Z,15.9
2018-03-08T21:56:02.966Z,15.9
2018-03-08T21:56:52.994Z,15.9
2018-03-08T21:57:43.141Z,15.9
2018-03-08T21:58:32.831Z,15.9
2018-03-08T21:59:23.154Z,15.9
2018-03-08T22:00:13.538Z,15.9
2018-03-08T22:01:03.651Z,15.9
2018-03-08T22:01:53.349Z,15.9
2018-03-08T22:02:43.396Z,15.9
2018-03-08T22:03:33.451Z,15.9
2018-03-08T22:04:24.071Z,15.9
2018-03-08T22:05:13.864Z,15.9
2018-03-08T22:06:03.951Z,15.9
2018-03-08T22:06:53.945Z,15.9
2018-03-08T22:07:44.318Z,15.9
2018-03-08T22:08:34.343Z,15.9
2018-03-08T22:09:24.408Z,15.9
2018-03-08T22:10:13.935Z,15.9
2018-03-08T22:11:04.266Z,15.9
2018-03-08T22:11:54.418Z,15.9
2018-03-08T22:12:44.078Z,15.9
2018-03-08T22:13:34.717Z,15.9
2018-03-08T22:14:24.733Z,15.9
2018-03-08T22:15:14.769Z,15.9
2018-03-08T22:16:04.866Z,15.9
2018-03-08T22:16:54.915Z,15.9
2018-03-08T22:17:44.700Z,15.9
2018-03-08T22:18:34.730Z,16
2018-03-08T22:19:25.084Z,16
2018-03-08T22:20:14.878Z,16
2018-03-08T22:21:05.229Z,16
2018-03-08T22:21:55.019Z,16.1
2018-03-08T22:22:45.349Z,16
2018-03-08T22:23:35.095Z,16.1
2018-03-08T22:24:25.144Z,16.1
2018-03-08T22:25:15.512Z,16.1
2018-03-08T22:26:05.277Z,16.1
2018-03-08T22:26:55.327Z,16.1
2018-03-08T22:27:45.689Z,16.1
2018-03-08T22:28:34.912Z,16.1
2018-03-08T22:29:24.768Z,16.1
2018-03-08T22:30:14.817Z,16.1
2018-03-08T22:31:05.194Z,16.1
2018-03-08T22:31:55.009Z,16.1
2018-03-08T22:32:45.447Z,16.1
2018-03-08T22:33:35.152Z,16.1
2018-03-08T22:34:24.744Z,16.1
2018-03-08T22:35:15.470Z,16.1
2018-03-08T22:36:05.719Z,16.1
2018-03-08T22:36:55.233Z,16.1
2018-03-08T22:37:45.345Z,16.1
2018-03-08T22:38:35.219Z,16.1
2018-03-08T22:39:25.072Z,16.1
2018-03-08T22:40:15.837Z,16.1
2018-03-08T22:41:05.194Z,16.1
2018-03-08T22:41:55.711Z,16.1
2018-03-08T22:42:45.908Z,16.1
2018-03-08T22:43:36.073Z,16.1
2018-03-08T22:44:25.548Z,16.1
2018-03-08T22:45:15.484Z,16.1
2018-03-08T22:46:05.836Z,16.1
2018-03-08T22:46:55.369Z,16.1
2018-03-08T22:47:46.044Z,16.1
2018-03-08T22:48:35.614Z,16.1
2018-03-08T22:49:25.930Z,16.1
2018-03-08T22:50:16.536Z,16.2
2018-03-08T22:51:06.184Z,16.1
2018-03-08T22:51:55.868Z,16.2
2018-03-08T22:52:47.419Z,16.2
2018-03-08T22:53:37.232Z,16.2
2018-03-08T22:54:27.524Z,16.1
2018-03-08T22:55:17.633Z,16.2
2018-03-08T22:56:07.149Z,16.2
2018-03-08T22:56:57.441Z,16.1
2018-03-08T22:57:47.513Z,16.2
2018-03-08T22:58:37.561Z,16.2
2018-03-08T22:59:27.673Z,16.2
2018-03-08T23:00:17.097Z,16.2
2018-03-08T23:01:07.421Z,16.2
2018-03-08T23:01:57.795Z,16.2
2018-03-08T23:02:47.842Z,16.2
2018-03-08T23:03:37.944Z,16.2
2018-03-08T23:04:27.718Z,16.2
2018-03-08T23:05:18.066Z,16.2
2018-03-08T23:06:08.325Z,16.2
2018-03-08T23:06:58.127Z,16.2
2018-03-08T23:07:48.175Z,16.2
2018-03-08T23:08:37.960Z,16.2
2018-03-08T23:09:28.328Z,16.2
2018-03-08T23:10:18.625Z,16.2
2018-03-08T23:11:08.688Z,16.2
2018-03-08T23:11:58.205Z,16.2